Time;durP1;ratioP1;P1;durP2;ratioP2;P2;SDS_P1;SDS_P2;PMS_P1;PMS_P2;Temp;Humidity;BMP_temperature;BMP_pressure;BME280_temperature;BME280_humidity;BME280_pressure;Samples;Min_cycle;Max_cycle;Signal;HPM_P1;HPM_P2
2022/08/26 04:32:23;;;;;;;;;9.50;7.00;;;;;-147.14;100.00;58812.66;5074861;23;8894;-71
2022/08/26 04:34:48;;;;;;;;;7.33;7.33;;;;;-147.14;100.00;58812.66;5015619;28;8847;-71
2022/08/26 04:37:13;;;;;;;;;13.00;11.00;;;;;-147.14;100.00;58812.66;5024467;28;8824;-71
2022/08/26 04:39:39;;;;;;;;;9.33;7.33;;;;;-147.14;100.00;58812.66;4999281;28;8847;-71
2022/08/26 04:42:05;;;;;;;;;11.67;10.67;;;;;-147.14;100.00;58812.66;5021671;28;33850;-71
2022/08/26 04:44:30;;;;;;;;;15.67;12.00;;;;;-147.14;100.00;58812.66;5015910;28;8854;-71
2022/08/26 04:46:57;;;;;;;;;7.00;7.00;;;;;-147.14;100.00;58812.66;5011916;28;8844;-70
2022/08/26 04:49:22;;;;;;;;;5.00;5.00;;;;;-147.14;100.00;58812.66;5015564;28;8831;-70
2022/08/26 04:51:47;;;;;;;;;10.00;6.33;;;;;-147.14;100.00;58812.66;5014427;28;31040;-70
2022/08/26 04:54:13;;;;;;;;;6.33;6.33;;;;;-147.14;100.00;58812.66;5014572;28;33067;-71
2022/08/26 04:56:41;;;;;;;;;11.67;11.67;;;;;-147.14;100.00;58812.66;5016730;28;8879;-72
2022/08/26 04:59:11;;;;;;;;;9.50;9.50;;;;;-147.14;100.00;58812.66;5015162;28;8812;-71
2022/08/26 05:01:37;;;;;;;;;10.00;8.50;;;;;-147.14;100.00;58812.66;5013668;28;9242;-71
2022/08/26 05:04:03;;;;;;;;;10.50;9.25;;;;;-147.14;100.00;58812.66;5014147;28;8900;-71
2022/08/26 05:06:29;;;;;;;;;11.50;9.75;;;;;-147.14;100.00;58812.66;5022539;28;8842;-70
2022/08/26 05:08:54;;;;;;;;;7.33;7.33;;;;;-147.14;100.00;58812.66;5014579;28;8820;-70
2022/08/26 05:11:20;;;;;;;;;10.00;10.00;;;;;-147.14;100.00;58812.66;5016733;28;10990;-71
2022/08/26 05:13:46;;;;;;;;;8.00;7.33;;;;;-147.14;100.00;58812.66;5015363;28;8891;-71
2022/08/26 05:16:13;;;;;;;;;8.25;6.75;;;;;-147.14;100.00;58812.66;5015028;28;8821;-71
2022/08/26 05:18:40;;;;;;;;;9.75;9.75;;;;;-147.14;100.00;58812.66;5015333;28;8812;-71
2022/08/26 05:21:06;;;;;;;;;8.00;7.25;;;;;-147.14;100.00;58812.66;5014899;28;8810;-70
2022/08/26 05:23:34;;;;;;;;;8.00;7.50;;;;;-147.14;100.00;58812.66;5014623;28;8804;-70
2022/08/26 05:25:59;;;;;;;;;10.00;8.00;;;;;-147.14;100.00;58812.66;5014685;28;8835;-69
2022/08/26 05:28:27;;;;;;;;;8.00;7.00;;;;;-147.14;100.00;58812.66;5015755;28;8832;-69
2022/08/26 05:30:54;;;;;;;;;11.75;8.75;;;;;-147.14;100.00;58812.66;5014382;28;8829;-69
2022/08/26 05:33:20;;;;;;;;;8.50;7.00;;;;;-147.14;100.00;58812.66;5015841;28;8800;-70
2022/08/26 05:35:45;;;;;;;;;10.00;10.00;;;;;-147.14;100.00;58812.66;5014696;28;8836;-70
2022/08/26 05:38:16;;;;;;;;;12.67;7.33;;;;;-147.14;100.00;58812.66;5015399;28;8824;-70
2022/08/26 05:40:46;;;;;;;;;16.25;15.00;;;;;-147.14;100.00;58812.66;5014877;28;8821;-70
2022/08/26 05:43:12;;;;;;;;;13.00;10.25;;;;;-147.14;100.00;58812.66;5018412;28;8824;-70
2022/08/26 05:45:49;;;;;;;;;7.75;7.50;;;;;-147.14;100.00;58812.66;5014094;28;8813;-71
2022/08/26 05:48:17;;;;;;;;;9.50;7.75;;;;;-147.14;100.00;58812.66;5015019;28;8820;-71
2022/08/26 05:50:45;;;;;;;;;13.75;10.25;;;;;-147.14;100.00;58812.66;5014503;28;8789;-71
2022/08/26 05:53:12;;;;;;;;;16.00;12.75;;;;;-147.14;100.00;58812.66;5014936;28;8796;-70
2022/08/26 05:55:45;;;;;;;;;7.50;7.50;;;;;-147.14;100.00;58812.66;5014217;28;8824;-69
2022/08/26 05:58:11;;;;;;;;;7.75;7.50;;;;;-147.14;100.00;58812.66;5014977;28;8867;-70
2022/08/26 06:00:36;;;;;;;;;12.75;11.50;;;;;-147.14;100.00;58812.66;5013018;28;8780;-70
2022/08/26 06:03:01;;;;;;;;;13.00;12.00;;;;;-147.14;100.00;58812.66;5015188;28;8859;-69
2022/08/26 06:05:27;;;;;;;;;11.00;8.00;;;;;-147.14;100.00;58812.66;5013669;28;33838;-70
2022/08/26 06:08:12;;;;;;;;;10.33;10.33;;;;;-147.14;100.00;58812.66;5012678;28;31917;-70
2022/08/26 06:10:52;;;;;;;;;9.00;9.00;;;;;-147.14;100.00;58812.66;5005192;28;8840;-70
2022/08/26 06:13:25;;;;;;;;;13.75;11.25;;;;;-147.14;100.00;58812.66;5014147;28;8792;-69
2022/08/26 06:15:51;;;;;;;;;16.25;11.75;;;;;-147.14;100.00;58812.66;5013515;28;8828;-70
2022/08/26 06:18:20;;;;;;;;;13.50;13.25;;;;;-147.14;100.00;58812.66;5015304;28;8820;-69
2022/08/26 06:20:47;;;;;;;;;14.00;13.50;;;;;-147.14;100.00;58812.66;5013498;28;8874;-69
2022/08/26 06:25:58;;;;;;;;;8.25;8.25;;;;;-147.14;100.00;58812.66;5014737;28;8792;-67
2022/08/26 06:28:24;;;;;;;;;10.00;8.00;;;;;-147.14;100.00;58812.66;5013449;28;34220;-68
2022/08/26 06:31:39;;;;;;;;;12.50;10.25;;;;;-147.14;100.00;58812.66;5013899;28;8873;-68
2022/08/26 06:34:05;;;;;;;;;10.00;10.00;;;;;-147.14;100.00;58812.66;5026368;28;8876;-68
2022/08/26 06:36:32;;;;;;;;;12.33;11.33;;;;;-147.14;100.00;58812.66;5013701;28;8934;-68
2022/08/26 06:39:06;;;;;;;;;13.00;11.50;;;;;-147.14;100.00;58812.66;5012787;28;8896;-68
2022/08/26 06:41:33;;;;;;;;;8.25;8.00;;;;;-147.14;100.00;58812.66;5016003;28;8890;-68
2022/08/26 06:43:59;;;;;;;;;10.00;10.00;;;;;-147.14;100.00;58812.66;5012659;28;8828;-68
2022/08/26 06:46:25;;;;;;;;;13.75;10.50;;;;;-147.14;100.00;58812.66;5018554;28;8910;-68
2022/08/26 06:48:52;;;;;;;;;8.67;8.00;;;;;-147.14;100.00;58812.66;5014315;28;8825;-68
2022/08/26 06:51:20;;;;;;;;;10.25;10.25;;;;;-147.14;100.00;58812.66;5020864;28;11341;-68
2022/08/26 06:53:47;;;;;;;;;11.75;10.75;;;;;-147.14;100.00;58812.66;5017556;28;8876;-68
2022/08/26 06:56:15;;;;;;;;;5.25;5.25;;;;;-147.14;100.00;58812.66;5015754;28;8832;-67
2022/08/26 06:58:40;;;;;;;;;6.00;5.50;;;;;-147.14;100.00;58812.66;5020579;28;8802;-68
2022/08/26 07:01:23;;;;;;;;;9.33;9.33;;;;;-147.14;100.00;58812.66;5017895;28;8911;-68
2022/08/26 07:03:51;;;;;;;;;9.50;7.75;;;;;-147.14;100.00;58812.66;5014920;28;8966;-68
2022/08/26 07:06:18;;;;;;;;;10.50;7.75;;;;;-147.14;100.00;58812.66;5018723;28;8835;-68
2022/08/26 07:08:44;;;;;;;;;8.00;7.75;;;;;-147.14;100.00;58812.66;5018292;28;10676;-68
2022/08/26 07:11:10;;;;;;;;;10.00;8.50;;;;;-147.14;100.00;58812.66;5015094;28;8741;-68
2022/08/26 07:13:36;;;;;;;;;9.00;8.00;;;;;-147.14;100.00;58812.66;5014009;28;10025;-68
2022/08/26 07:16:07;;;;;;;;;10.00;8.50;;;;;-147.14;100.00;58812.66;5021787;28;8856;-68
2022/08/26 07:18:34;;;;;;;;;12.25;10.50;;;;;-147.14;100.00;58812.66;5019773;28;8812;-68
2022/08/26 07:21:04;;;;;;;;;13.25;12.25;;;;;-147.14;100.00;58812.66;5009555;28;8905;-68
2022/08/26 07:23:31;;;;;;;;;10.75;10.00;;;;;-147.14;100.00;58812.66;5011199;28;8772;-68
2022/08/26 07:25:56;;;;;;;;;10.50;9.00;;;;;-147.14;100.00;58812.66;5016640;28;8767;-68
2022/08/26 07:28:21;;;;;;;;;11.00;10.33;;;;;-147.14;100.00;58812.66;5017769;28;8808;-68
2022/08/26 07:30:47;;;;;;;;;4.67;4.00;;;;;-147.14;100.00;58812.66;5020653;28;8887;-68
2022/08/26 07:33:12;;;;;;;;;6.00;6.00;;;;;-147.14;100.00;58812.66;5016937;28;24587;-68
2022/08/26 07:35:38;;;;;;;;;7.00;6.67;;;;;-147.14;100.00;58812.66;5013239;28;35264;-66
2022/08/26 07:38:03;;;;;;;;;9.33;8.00;;;;;-147.14;100.00;58812.66;5016636;28;8832;-66
2022/08/26 07:40:28;;;;;;;;;7.33;7.33;;;;;-147.14;100.00;58812.66;5018124;28;29070;-67
2022/08/26 07:42:54;;;;;;;;;12.00;10.67;;;;;-147.14;100.00;58812.66;5015027;28;8863;-67
2022/08/26 07:45:19;;;;;;;;;8.67;7.00;;;;;-147.14;100.00;58812.66;5013297;28;30036;-67
2022/08/26 07:47:44;;;;;;;;;8.33;8.33;;;;;-147.14;100.00;58812.66;5021633;28;21749;-68
2022/08/26 07:50:10;;;;;;;;;10.00;10.00;;;;;-147.14;100.00;58812.66;5018777;28;33779;-67
2022/08/26 07:52:37;;;;;;;;;9.33;8.00;;;;;-147.14;100.00;58812.66;5014114;28;28628;-67
2022/08/26 07:55:04;;;;;;;;;9.00;6.00;;;;;-147.14;100.00;58812.66;5028095;28;10872;-65
2022/08/26 07:57:29;;;;;;;;;6.75;6.75;;;;;-147.14;100.00;58812.66;5032530;28;8806;-65
2022/08/26 07:59:55;;;;;;;;;4.67;4.67;;;;;-147.14;100.00;58812.66;5012571;28;33133;-65
2022/08/26 08:02:21;;;;;;;;;8.00;7.00;;;;;-147.14;100.00;58812.66;5013610;28;8836;-65
2022/08/26 08:04:47;;;;;;;;;7.00;6.00;;;;;-147.14;100.00;58812.66;5013827;28;8825;-66
2022/08/26 08:07:12;;;;;;;;;7.33;7.33;;;;;-147.14;100.00;58812.66;5016738;28;21803;-66
2022/08/26 08:09:37;;;;;;;;;5.00;4.67;;;;;-147.14;100.00;58812.66;5017821;28;26124;-65
2022/08/26 08:12:03;;;;;;;;;6.00;6.00;;;;;-147.14;100.00;58812.66;5021201;28;8840;-65
2022/08/26 08:14:29;;;;;;;;;7.00;6.25;;;;;-147.14;100.00;58812.66;5018930;28;8859;-65
2022/08/26 08:16:55;;;;;;;;;6.75;6.25;;;;;-147.14;100.00;58812.66;5019672;28;8853;-65
2022/08/26 08:19:21;;;;;;;;;8.00;6.25;;;;;-147.14;100.00;58812.66;5019854;28;11616;-65
2022/08/26 08:21:47;;;;;;;;;4.60;4.60;;;;;-147.14;100.00;58812.66;5017577;28;9219;-65
2022/08/26 08:24:12;;;;;;;;;6.67;5.67;;;;;-147.14;100.00;58812.66;5015191;28;29747;-65
2022/08/26 08:26:38;;;;;;;;;5.75;4.50;;;;;-147.14;100.00;58812.66;5025923;28;33896;-65
2022/08/26 08:29:07;;;;;;;;;9.00;9.00;;;;;-147.14;100.00;58812.66;5565823;23;8879;-63
2022/08/26 08:31:33;;;;;;;;;4.00;4.00;;;;;-147.14;100.00;58812.66;5004772;28;8836;-69
2022/08/26 08:33:59;;;;;;;;;6.00;5.80;;;;;-147.14;100.00;58812.66;5014717;28;8809;-69
2022/08/26 08:36:24;;;;;;;;;4.25;3.50;;;;;-147.14;100.00;58812.66;5012032;28;8987;-69
2022/08/26 08:38:49;;;;;;;;;4.25;4.25;;;;;-147.14;100.00;58812.66;5009982;28;9449;-67
2022/08/26 08:41:30;;;;;;;;;7.75;6.75;;;;;-147.14;100.00;58812.66;5013557;28;33033;-68
2022/08/26 08:43:59;;;;;;;;;7.00;7.00;;;;;-147.14;100.00;58812.66;5005167;28;8796;-68
2022/08/26 08:46:24;;;;;;;;;4.40;4.40;;;;;-147.14;100.00;58812.66;5015976;28;8856;-68
2022/08/26 08:48:55;;;;;;;;;6.00;5.00;;;;;-147.14;100.00;58812.66;5016428;28;8796;-68
2022/08/26 08:51:42;;;;;;;;;4.80;4.80;;;;;-147.14;100.00;58812.66;5020537;28;8844;-68
2022/08/26 08:54:08;;;;;;;;;4.80;4.20;;;;;-147.14;100.00;58812.66;5015159;28;8808;-67
2022/08/26 08:56:45;;;;;;;;;4.67;3.67;;;;;-147.14;100.00;58812.66;4998346;28;8871;-68
2022/08/26 08:59:20;;;;;;;;;4.40;4.40;;;;;-147.14;100.00;58812.66;5005555;28;8809;-68
2022/08/26 09:02:11;;;;;;;;;4.00;3.20;;;;;-147.14;100.00;58812.66;5029922;28;8824;-68
2022/08/26 09:04:47;;;;;;;;;6.25;6.00;;;;;-147.14;100.00;58812.66;5012583;28;8816;-68
2022/08/26 09:07:17;;;;;;;;;8.75;7.75;;;;;-147.14;100.00;58812.66;5010137;28;8827;-72
2022/08/26 09:09:59;;;;;;;;;4.00;4.00;;;;;-147.14;100.00;58812.66;5010370;28;8804;-69
2022/08/26 09:12:29;;;;;;;;;3.20;3.20;;;;;-147.14;100.00;58812.66;5014712;28;8801;-68
2022/08/26 09:15:01;;;;;;;;;2.60;2.60;;;;;-147.14;100.00;58812.66;5016850;28;8824;-69
2022/08/26 09:18:12;;;;;;;;;8.40;5.40;;;;;-147.14;100.00;58812.66;5012859;28;8745;-69
2022/08/26 09:20:56;;;;;;;;;4.00;3.80;;;;;-147.14;100.00;58812.66;4991105;28;8815;-63
2022/08/26 09:23:21;;;;;;;;;4.80;4.80;;;;;-147.14;100.00;58812.66;5016609;28;8820;-68
2022/08/26 09:25:50;;;;;;;;;1.25;1.25;;;;;-147.14;100.00;58812.66;5017297;28;8918;-69
2022/08/26 09:28:18;;;;;;;;;5.60;4.80;;;;;-147.14;100.00;58812.66;5017694;28;8839;-67
2022/08/26 09:30:45;;;;;;;;;5.80;4.40;;;;;-147.14;100.00;58812.66;5016439;28;8812;-69
2022/08/26 09:33:15;;;;;;;;;4.50;4.50;;;;;-147.14;100.00;58812.66;5015527;28;8796;-68
2022/08/26 09:35:45;;;;;;;;;2.60;2.60;;;;;-147.14;100.00;58812.66;5008659;28;8808;-68
2022/08/26 09:38:32;;;;;;;;;4.60;3.60;;;;;-147.14;100.00;58812.66;5012799;28;8824;-68
2022/08/26 09:41:00;;;;;;;;;2.60;2.60;;;;;-147.14;100.00;58812.66;5014194;28;8781;-69
2022/08/26 09:43:27;;;;;;;;;5.20;4.60;;;;;-147.14;100.00;58812.66;5018019;28;8761;-69
2022/08/26 09:46:08;;;;;;;;;3.80;3.80;;;;;-147.14;100.00;58812.66;5012524;28;8931;-68
2022/08/26 09:48:36;;;;;;;;;2.80;2.80;;;;;-147.14;100.00;58812.66;5010083;28;8807;-63
2022/08/26 09:51:05;;;;;;;;;3.40;3.40;;;;;-147.14;100.00;58812.66;5010168;28;8801;-68
2022/08/26 09:53:35;;;;;;;;;5.00;5.00;;;;;-147.14;100.00;58812.66;5011595;28;8824;-68
2022/08/26 09:56:17;;;;;;;;;5.40;4.20;;;;;-147.14;100.00;58812.66;5015547;28;8914;-68
2022/08/26 09:58:46;;;;;;;;;5.20;5.00;;;;;-147.14;100.00;58812.66;5012199;28;8792;-68
2022/08/26 10:01:29;;;;;;;;;5.20;4.00;;;;;-147.14;100.00;58812.66;5008736;28;8897;-68
2022/08/26 10:04:29;;;;;;;;;4.60;4.60;;;;;-147.14;100.00;58812.66;5007171;28;8816;-68
2022/08/26 10:07:00;;;;;;;;;3.80;3.80;;;;;-147.14;100.00;58812.66;5003426;28;9725;-68
2022/08/26 10:09:26;;;;;;;;;3.00;3.00;;;;;-147.14;100.00;58812.66;5013506;28;9967;-67
2022/08/26 10:11:57;;;;;;;;;3.80;3.80;;;;;-147.14;100.00;58812.66;5010884;28;8808;-68
2022/08/26 10:14:54;;;;;;;;;3.80;3.20;;;;;-147.14;100.00;58812.66;5013183;28;8775;-68
2022/08/26 10:17:38;;;;;;;;;5.20;5.00;;;;;-147.14;100.00;58812.66;4997786;28;8824;-67
2022/08/26 10:20:13;;;;;;;;;4.60;4.60;;;;;-147.14;100.00;58812.66;5012886;28;8824;-62
2022/08/26 10:22:47;;;;;;;;;4.60;4.40;;;;;-147.14;100.00;58812.66;5012832;28;8826;-63
2022/08/26 10:25:16;;;;;;;;;6.60;3.20;;;;;-147.14;100.00;58812.66;5013763;28;8927;-62
2022/08/26 10:28:07;;;;;;;;;5.20;2.60;;;;;-147.14;100.00;58812.66;5012502;28;8808;-63
2022/08/26 10:30:51;;;;;;;;;2.60;2.60;;;;;-147.14;100.00;58812.66;5011602;28;8836;-63
2022/08/26 10:33:17;;;;;;;;;6.60;4.00;;;;;-147.14;100.00;58812.66;5007407;28;8832;-59
2022/08/26 10:35:52;;;;;;;;;5.00;4.25;;;;;-147.14;100.00;58812.66;5013480;28;25503;-59
2022/08/26 10:38:25;;;;;;;;;3.20;3.20;;;;;-147.14;100.00;58812.66;5014881;28;8817;-59
2022/08/26 10:40:59;;;;;;;;;4.00;3.00;;;;;-147.14;100.00;58812.66;5009872;28;8824;-60
2022/08/26 10:43:28;;;;;;;;;3.25;3.25;;;;;-147.14;100.00;58812.66;5018872;28;8793;-60
2022/08/26 10:45:59;;;;;;;;;3.00;3.00;;;;;-147.14;100.00;58812.66;5015344;28;8816;-59
2022/08/26 10:48:35;;;;;;;;;6.25;4.00;;;;;-147.14;100.00;58812.66;5013482;28;8785;-59
2022/08/26 10:51:02;;;;;;;;;2.40;1.00;;;;;-147.14;100.00;58812.66;5015741;28;8832;-59
2022/08/26 10:53:56;;;;;;;;;0.20;0.20;;;;;-147.14;100.00;58812.66;5019101;28;8894;-58
2022/08/26 10:56:32;;;;;;;;;2.20;2.20;;;;;-147.14;100.00;58812.66;5017921;28;8844;-58
2022/08/26 10:59:25;;;;;;;;;3.80;3.80;;;;;-147.14;100.00;58812.66;5013681;28;8760;-59
2022/08/26 11:02:02;;;;;;;;;2.20;2.20;;;;;-147.14;100.00;58812.66;5014592;28;8882;-59
2022/08/26 11:04:52;;;;;;;;;0.80;0.80;;;;;-147.14;100.00;58812.66;5013522;28;8797;-59
2022/08/26 11:07:37;;;;;;;;;3.20;3.00;;;;;-147.14;100.00;58812.66;5006733;28;8828;-59
2022/08/26 11:10:15;;;;;;;;;1.00;1.00;;;;;-147.14;100.00;58812.66;5015273;28;8845;-59
2022/08/26 11:12:40;;;;;;;;;1.00;1.00;;;;;-147.14;100.00;58812.66;5016142;28;8924;-60
2022/08/26 11:15:11;;;;;;;;;2.00;2.00;;;;;-147.14;100.00;58812.66;5019725;28;8975;-59
2022/08/26 11:17:43;;;;;;;;;2.20;2.20;;;;;-147.14;100.00;58812.66;5018277;28;8940;-59
2022/08/26 11:20:30;;;;;;;;;3.20;3.20;;;;;-147.14;100.00;58812.66;5016228;28;8887;-59
2022/08/26 11:23:21;;;;;;;;;1.00;0.00;;;;;-147.14;100.00;58812.66;5014580;28;8808;-59
2022/08/26 11:26:08;;;;;;;;;1.60;1.20;;;;;-147.14;100.00;58812.66;5018263;28;9316;-59
2022/08/26 11:28:43;;;;;;;;;0.40;0.40;;;;;-147.14;100.00;58812.66;5010593;28;8948;-59
2022/08/26 11:31:11;;;;;;;;;1.20;1.20;;;;;-147.14;100.00;58812.66;5012102;28;8821;-59
2022/08/26 11:33:42;;;;;;;;;0.80;0.80;;;;;-147.14;100.00;58812.66;5013350;28;8891;-59
2022/08/26 11:36:09;;;;;;;;;1.60;1.60;;;;;-147.14;100.00;58812.66;5012778;28;8847;-58
2022/08/26 11:38:40;;;;;;;;;1.20;1.20;;;;;-147.14;100.00;58812.66;5011755;28;8816;-59
2022/08/26 11:41:10;;;;;;;;;3.00;3.00;;;;;-147.14;100.00;58812.66;5014397;28;8891;-59
2022/08/26 11:43:37;;;;;;;;;0.00;0.00;;;;;-147.14;100.00;58812.66;5018281;28;8812;-59
2022/08/26 11:46:09;;;;;;;;;1.60;1.60;;;;;-147.14;100.00;58812.66;5011500;28;8924;-59
2022/08/26 11:48:42;;;;;;;;;1.20;1.20;;;;;-147.14;100.00;58812.66;5016221;28;8789;-59
2022/08/26 11:51:10;;;;;;;;;2.40;2.40;;;;;-147.14;100.00;58812.66;5015582;28;8808;-59
2022/08/26 11:53:41;;;;;;;;;1.20;1.20;;;;;-147.14;100.00;58812.66;5017046;28;8797;-59
2022/08/26 11:56:09;;;;;;;;;1.40;1.20;;;;;-147.14;100.00;58812.66;5015311;28;8785;-60
2022/08/26 11:58:41;;;;;;;;;2.80;2.80;;;;;-147.14;100.00;58812.66;5014587;28;8800;-59
2022/08/26 12:01:08;;;;;;;;;2.60;2.60;;;;;-147.14;100.00;58812.66;5016930;28;8812;-60
2022/08/26 12:03:40;;;;;;;;;0.20;0.20;;;;;-147.14;100.00;58812.66;5014684;28;8863;-60
2022/08/26 12:06:31;;;;;;;;;1.20;1.20;;;;;-147.14;100.00;58812.66;5015399;28;8820;-60
2022/08/26 12:09:02;;;;;;;;;1.00;1.00;;;;;-147.14;100.00;58812.66;5016490;28;8839;-59
2022/08/26 12:11:32;;;;;;;;;1.40;1.40;;;;;-147.14;100.00;58812.66;5009804;28;8839;-60
2022/08/26 12:14:03;;;;;;;;;1.20;1.20;;;;;-147.14;100.00;58812.66;5015880;28;8804;-60
2022/08/26 12:16:30;;;;;;;;;1.40;1.40;;;;;-147.14;100.00;58812.66;5015807;28;8840;-60
2022/08/26 12:18:56;;;;;;;;;1.20;1.20;;;;;-147.14;100.00;58812.66;5016689;28;8828;-60
2022/08/26 12:21:30;;;;;;;;;1.00;1.00;;;;;-147.14;100.00;58812.66;5014511;28;8832;-60
2022/08/26 12:23:57;;;;;;;;;4.00;1.40;;;;;-147.14;100.00;58812.66;5005229;28;8846;-60
2022/08/26 12:26:30;;;;;;;;;1.20;1.20;;;;;-147.14;100.00;58812.66;5017914;28;8828;-60
2022/08/26 12:29:05;;;;;;;;;1.40;1.40;;;;;-147.14;100.00;58812.66;5014837;28;8777;-60
2022/08/26 12:31:34;;;;;;;;;1.80;1.80;;;;;-147.14;100.00;58812.66;5017394;28;8826;-60
2022/08/26 12:34:02;;;;;;;;;1.40;1.40;;;;;-147.14;100.00;58812.66;5023645;28;8880;-60
2022/08/26 12:36:45;;;;;;;;;0.00;0.00;;;;;-147.14;100.00;58812.66;5018107;28;8856;-60
2022/08/26 12:39:49;;;;;;;;;1.20;1.20;;;;;-147.14;100.00;58812.66;5021630;28;8820;-60
2022/08/26 12:42:14;;;;;;;;;0.40;0.40;;;;;-147.14;100.00;58812.66;5020201;28;8830;-60
2022/08/26 12:44:45;;;;;;;;;1.25;1.25;;;;;-147.14;100.00;58812.66;5015546;28;8852;-60
2022/08/26 12:47:27;;;;;;;;;0.00;0.00;;;;;-147.14;100.00;58812.66;5019027;28;8804;-60
2022/08/26 12:50:00;;;;;;;;;2.00;1.20;;;;;-147.14;100.00;58812.66;5017299;28;8809;-60
2022/08/26 12:52:33;;;;;;;;;0.60;0.60;;;;;-147.14;100.00;58812.66;5019003;28;8812;-60
2022/08/26 12:55:17;;;;;;;;;1.20;1.20;;;;;-147.14;100.00;58812.66;5022358;28;8868;-60
2022/08/26 12:57:42;;;;;;;;;0.20;0.20;;;;;-147.14;100.00;58812.66;5007172;28;8783;-60
2022/08/26 13:00:38;;;;;;;;;2.25;2.25;;;;;-147.14;100.00;58812.66;5020800;28;11636;-60
2022/08/26 13:03:03;;;;;;;;;1.00;0.20;;;;;-147.14;100.00;58812.66;5022821;28;8790;-59
2022/08/26 13:05:32;;;;;;;;;1.75;0.00;;;;;-147.14;100.00;58812.66;5012330;28;8856;-59
2022/08/26 13:08:11;;;;;;;;;1.80;1.80;;;;;-147.14;100.00;58812.66;5014829;28;8820;-59
2022/08/26 13:10:39;;;;;;;;;1.40;0.20;;;;;-147.14;100.00;58812.66;5012356;28;8747;-59
2022/08/26 13:13:05;;;;;;;;;1.40;1.40;;;;;-147.14;100.00;58812.66;5011408;28;8809;-60
2022/08/26 13:15:30;;;;;;;;;1.75;1.00;;;;;-147.14;100.00;58812.66;5021429;28;9052;-60
2022/08/26 13:17:55;;;;;;;;;0.50;0.50;;;;;-147.14;100.00;58812.66;5021877;28;31798;-60
2022/08/26 13:20:21;;;;;;;;;2.75;1.50;;;;;-147.14;100.00;58812.66;5017924;28;34281;-60
2022/08/26 13:22:47;;;;;;;;;1.75;0.00;;;;;-147.14;100.00;58812.66;5021915;28;8848;-60
2022/08/26 13:25:13;;;;;;;;;1.40;1.40;;;;;-147.14;100.00;58812.66;5009710;28;11458;-60
2022/08/26 13:27:38;;;;;;;;;1.25;1.00;;;;;-147.14;100.00;58812.66;5017716;28;8935;-60
2022/08/26 13:30:04;;;;;;;;;2.00;2.00;;;;;-147.14;100.00;58812.66;5015516;28;8896;-60
2022/08/26 13:32:30;;;;;;;;;1.00;1.00;;;;;-147.14;100.00;58812.66;5020545;28;9610;-60
2022/08/26 13:34:56;;;;;;;;;0.80;0.80;;;;;-147.14;100.00;58812.66;5016510;28;8746;-60
2022/08/26 13:37:22;;;;;;;;;1.00;1.00;;;;;-147.14;100.00;58812.66;5020085;28;8841;-60
2022/08/26 13:39:49;;;;;;;;;1.50;1.50;;;;;-147.14;100.00;58812.66;5015850;28;8950;-60
2022/08/26 13:42:15;;;;;;;;;2.40;2.40;;;;;-147.14;100.00;58812.66;5017897;28;8796;-60
2022/08/26 13:44:42;;;;;;;;;1.00;1.00;;;;;-147.14;100.00;58812.66;5015914;28;8854;-60
2022/08/26 13:47:08;;;;;;;;;0.40;0.20;;;;;-147.14;100.00;58812.66;5018278;28;8816;-60
2022/08/26 13:49:33;;;;;;;;;0.25;0.25;;;;;-147.14;100.00;58812.66;5015777;28;8846;-60
2022/08/26 13:51:59;;;;;;;;;0.75;0.75;;;;;-147.14;100.00;58812.66;5011662;28;29655;-60
2022/08/26 13:54:24;;;;;;;;;1.00;1.00;;;;;-147.14;100.00;58812.66;5015730;28;28356;-60
2022/08/26 13:56:50;;;;;;;;;1.50;1.50;;;;;-147.14;100.00;58812.66;5016010;28;27443;-60
2022/08/26 13:59:16;;;;;;;;;2.60;0.40;;;;;-147.14;100.00;58812.66;5015548;28;8773;-60
2022/08/26 14:01:41;;;;;;;;;0.50;0.50;;;;;-147.14;100.00;58812.66;5013746;28;9613;-60
2022/08/26 14:04:07;;;;;;;;;3.00;3.00;;;;;-147.14;100.00;58812.66;5023052;28;33853;-60
2022/08/26 14:06:32;;;;;;;;;0.60;0.60;;;;;-147.14;100.00;58812.66;5014754;28;8811;-60
2022/08/26 14:08:59;;;;;;;;;0.00;0.00;;;;;-147.14;100.00;58812.66;5017295;28;25584;-60
2022/08/26 14:11:24;;;;;;;;;0.00;0.00;;;;;-147.14;100.00;58812.66;5018174;28;8808;-58
2022/08/26 14:13:49;;;;;;;;;0.75;0.75;;;;;-147.14;100.00;58812.66;5009036;28;8846;-59
2022/08/26 14:16:21;;;;;;;;;1.50;0.75;;;;;-147.14;100.00;58812.66;5019337;28;8887;-59
2022/08/26 14:18:48;;;;;;;;;0.80;0.80;;;;;-147.14;100.00;58812.66;5020213;28;9556;-60
2022/08/26 14:21:14;;;;;;;;;1.40;0.60;;;;;-147.14;100.00;58812.66;5018242;28;8765;-60
2022/08/26 14:23:40;;;;;;;;;0.00;0.00;;;;;-147.14;100.00;58812.66;5016940;28;8841;-60
2022/08/26 14:26:09;;;;;;;;;0.25;0.00;;;;;-147.14;100.00;58812.66;5010089;28;8855;-60
2022/08/26 14:28:36;;;;;;;;;0.60;0.60;;;;;-147.14;100.00;58812.66;5014061;28;10519;-60
2022/08/26 14:31:02;;;;;;;;;0.40;0.40;;;;;-147.14;100.00;58812.66;5013985;28;8824;-60
2022/08/26 14:33:31;;;;;;;;;2.00;2.00;;;;;-147.14;100.00;58812.66;5016750;28;9796;-60
2022/08/26 14:38:45;;;;;;;;;1.60;1.20;;;;;-147.14;100.00;58812.66;5008839;28;8800;-59
2022/08/26 14:41:11;;;;;;;;;2.20;2.20;;;;;-147.14;100.00;58812.66;5015670;28;8820;-60
2022/08/26 14:43:40;;;;;;;;;0.80;0.80;;;;;-147.14;100.00;58812.66;5017712;28;8838;-59
2022/08/26 14:46:05;;;;;;;;;1.80;1.80;;;;;-147.14;100.00;58812.66;5017383;28;8821;-59
2022/08/26 14:48:31;;;;;;;;;4.25;2.50;;;;;-147.14;100.00;58812.66;5013596;28;35571;-60
2022/08/26 14:50:56;;;;;;;;;2.00;2.00;;;;;-147.14;100.00;58812.66;5016864;28;32927;-60
2022/08/26 14:56:05;;;;;;;;;1.00;1.00;;;;;-147.14;100.00;58812.66;5013155;28;8812;-59
2022/08/26 14:58:30;;;;;;;;;1.00;1.00;;;;;-147.14;100.00;58812.66;5012013;28;34778;-61
2022/08/26 15:00:56;;;;;;;;;0.50;0.50;;;;;-147.14;100.00;58812.66;5012459;28;36265;-60
2022/08/26 15:03:21;;;;;;;;;2.25;2.25;;;;;-147.14;100.00;58812.66;5010985;28;8838;-60
2022/08/26 15:05:46;;;;;;;;;0.50;0.50;;;;;-147.14;100.00;58812.66;5020888;28;27776;-60
2022/08/26 15:08:12;;;;;;;;;0.00;0.00;;;;;-147.14;100.00;58812.66;5018957;28;29101;-60
2022/08/26 15:10:37;;;;;;;;;2.50;2.50;;;;;-147.14;100.00;58812.66;5016235;28;8817;-61
2022/08/26 15:13:03;;;;;;;;;1.00;1.00;;;;;-147.14;100.00;58812.66;5022838;28;10031;-60
2022/08/26 15:15:28;;;;;;;;;2.00;2.00;;;;;-147.14;100.00;58812.66;5025391;28;8888;-60
2022/08/26 15:17:54;;;;;;;;;1.75;1.75;;;;;-147.14;100.00;58812.66;5016948;28;8978;-61
2022/08/26 15:20:19;;;;;;;;;3.00;1.25;;;;;-147.14;100.00;58812.66;5010958;28;8812;-61
2022/08/26 15:22:45;;;;;;;;;1.50;1.50;;;;;-147.14;100.00;58812.66;5023940;28;8843;-60
2022/08/26 15:25:11;;;;;;;;;0.50;0.50;;;;;-147.14;100.00;58812.66;5011503;28;8830;-61
2022/08/26 15:27:36;;;;;;;;;1.25;1.25;;;;;-147.14;100.00;58812.66;5003498;28;8828;-61
2022/08/26 15:30:05;;;;;;;;;1.00;1.00;;;;;-147.14;100.00;58812.66;5014909;28;8854;-60
2022/08/26 15:32:30;;;;;;;;;5.20;2.20;;;;;-147.14;100.00;58812.66;5013145;28;8843;-60
2022/08/26 15:34:56;;;;;;;;;0.75;0.75;;;;;-147.14;100.00;58812.66;5016097;28;8808;-60
2022/08/26 15:37:22;;;;;;;;;2.75;2.75;;;;;-147.14;100.00;58812.66;5026487;28;8853;-60
2022/08/26 15:39:47;;;;;;;;;2.50;1.50;;;;;-147.14;100.00;58812.66;5015985;28;8824;-61
2022/08/26 15:42:12;;;;;;;;;2.00;1.00;;;;;-147.14;100.00;58812.66;5029015;28;8997;-60
2022/08/26 15:44:42;;;;;;;;;0.00;0.00;;;;;-147.14;100.00;58812.66;5003759;28;8834;-61
2022/08/26 15:47:07;;;;;;;;;1.60;0.40;;;;;-147.14;100.00;58812.66;5021212;28;8891;-60
2022/08/26 15:49:32;;;;;;;;;2.00;2.00;;;;;-147.14;100.00;58812.66;5012359;28;33652;-60
2022/08/26 15:51:58;;;;;;;;;0.00;0.00;;;;;-147.14;100.00;58812.66;5011640;28;31419;-60
2022/08/26 15:54:23;;;;;;;;;0.75;0.75;;;;;-147.14;100.00;58812.66;5011209;28;31744;-60
2022/08/26 15:56:50;;;;;;;;;1.00;1.00;;;;;-147.14;100.00;58812.66;5013353;28;8876;-60
2022/08/26 15:59:16;;;;;;;;;1.25;1.25;;;;;-147.14;100.00;58812.66;5012790;28;8824;-60
2022/08/26 16:01:42;;;;;;;;;0.25;0.25;;;;;-147.14;100.00;58812.66;5013612;28;9860;-60
2022/08/26 16:04:08;;;;;;;;;0.00;0.00;;;;;-147.14;100.00;58812.66;5012783;28;35836;-61
2022/08/26 16:06:35;;;;;;;;;1.00;1.00;;;;;-147.14;100.00;58812.66;5012569;28;35221;-60